createdAt,value
2018-12-11T00:01:36.585Z,2.43
2018-12-11T00:05:39.441Z,2.10
2018-12-11T00:09:42.317Z,2.30
2018-12-11T00:13:45.185Z,2.20
2018-12-11T00:17:48.226Z,2.63
2018-12-11T00:21:51.156Z,2.20
2018-12-11T00:25:54.242Z,2.07
2018-12-11T00:29:57.394Z,1.73
2018-12-11T00:34:00.283Z,2.23
2018-12-11T00:38:03.241Z,2.30
2018-12-11T00:42:06.330Z,1.70
2018-12-11T00:46:09.206Z,2.47
2018-12-11T00:50:12.161Z,2.00
2018-12-11T00:54:15.125Z,2.47
2018-12-11T00:58:18.065Z,2.13
2018-12-11T01:02:21.009Z,2.20
2018-12-11T01:06:25.734Z,1.40
2018-12-11T01:10:28.597Z,1.53
2018-12-11T01:14:31.753Z,1.60
2018-12-11T01:18:34.637Z,1.67
2018-12-11T01:22:37.789Z,1.47
2018-12-11T01:26:40.729Z,1.70
2018-12-11T01:30:43.705Z,1.30
2018-12-11T01:34:46.797Z,1.80
2018-12-11T01:38:49.671Z,1.47
2018-12-11T01:42:52.536Z,2.37
2018-12-11T01:46:55.517Z,1.63
2018-12-11T01:50:58.382Z,1.87
2018-12-11T01:55:01.257Z,2.63
2018-12-11T01:59:04.113Z,1.37
2018-12-11T02:03:06.989Z,1.90
2018-12-11T02:07:10.133Z,1.93
2018-12-11T02:11:13.038Z,2.23
2018-12-11T02:15:16.182Z,1.70
2018-12-11T02:19:19.420Z,1.70
2018-12-11T02:23:22.354Z,1.90
2018-12-11T02:27:25.526Z,2.27
2018-12-11T02:31:28.396Z,1.73
2018-12-11T02:35:31.530Z,2.27
2018-12-11T02:39:34.498Z,1.87
2018-12-11T02:43:37.640Z,1.60
2018-12-11T02:47:40.503Z,1.77
2018-12-11T02:51:43.463Z,1.90
2018-12-11T02:55:46.362Z,1.30
2018-12-11T02:59:49.238Z,3.53
2018-12-11T03:03:52.186Z,1.57
2018-12-11T03:07:55.061Z,1.73
2018-12-11T03:11:58.382Z,2.47
2018-12-11T03:16:01.217Z,2.53
2018-12-11T03:20:04.502Z,1.37
2018-12-11T03:24:07.389Z,1.50
2018-12-11T03:28:10.323Z,1.30
2018-12-11T03:32:13.287Z,2.13
2018-12-11T03:36:16.255Z,1.87
2018-12-11T03:40:19.129Z,1.73
2018-12-11T03:44:22.210Z,2.13
2018-12-11T03:48:25.194Z,1.90
2018-12-11T03:52:28.057Z,2.53
2018-12-11T03:56:31.102Z,2.27
2018-12-11T04:00:34.067Z,2.20
2018-12-11T04:04:36.957Z,1.63
2018-12-11T04:08:39.969Z,1.70
2018-12-11T04:12:42.853Z,2.00
2018-12-11T04:16:45.990Z,3.20
2018-12-11T04:20:48.929Z,1.73
2018-12-11T04:24:51.997Z,1.53
2018-12-11T04:28:55.661Z,1.57
2018-12-11T04:32:58.529Z,1.23
2018-12-11T04:37:01.417Z,1.30
2018-12-11T04:41:04.349Z,1.83
2018-12-11T04:45:07.369Z,1.97
2018-12-11T04:49:10.277Z,1.70
2018-12-11T04:53:13.237Z,2.07
2018-12-11T04:57:16.105Z,2.10
2018-12-11T05:01:18.985Z,1.67
2018-12-11T05:05:22.086Z,1.40
2018-12-11T05:09:24.949Z,2.23
2018-12-11T05:13:27.892Z,2.27
2018-12-11T05:17:30.982Z,1.73
2018-12-11T05:21:34.336Z,2.27
2018-12-11T05:25:37.533Z,2.00
2018-12-11T05:29:40.400Z,1.53
2018-12-11T05:33:43.268Z,1.57
2018-12-11T05:37:46.153Z,1.40
2018-12-11T05:41:55.862Z,1.80
2018-12-11T05:45:58.866Z,1.30
2018-12-11T05:50:02.045Z,1.83
2018-12-11T05:54:05.152Z,2.53
2018-12-11T05:58:08.041Z,2.90
2018-12-11T06:02:10.913Z,2.63
2018-12-11T06:06:13.878Z,1.93
2018-12-11T06:10:16.833Z,1.60
2018-12-11T06:14:19.750Z,1.53
2018-12-11T06:18:22.917Z,2.03
2018-12-11T06:22:25.825Z,1.80
2018-12-11T06:26:28.698Z,1.30
2018-12-11T06:30:31.576Z,1.60
2018-12-11T06:34:34.683Z,1.50
2018-12-11T06:38:37.608Z,1.67
2018-12-11T06:42:40.690Z,1.67
2018-12-11T06:46:43.561Z,2.23
2018-12-11T06:50:46.441Z,1.40
2018-12-11T06:54:49.709Z,1.40
2018-12-11T06:58:52.794Z,1.20
2018-12-11T07:02:55.676Z,1.70
2018-12-11T07:06:58.558Z,1.30
2018-12-11T07:11:01.439Z,1.40
2018-12-11T07:15:04.940Z,2.00
2018-12-11T07:19:07.827Z,1.53
2018-12-11T07:23:10.873Z,1.93
2018-12-11T07:27:13.773Z,2.17
2018-12-11T07:31:16.637Z,1.87
2018-12-11T07:35:19.518Z,1.77
2018-12-11T07:39:22.647Z,1.93
2018-12-11T07:43:26.137Z,2.97
2018-12-11T07:47:29.082Z,1.70
2018-12-11T07:51:31.976Z,1.60
2018-12-11T07:55:34.853Z,2.83
2018-12-11T07:59:37.937Z,4.30
2018-12-11T08:03:40.817Z,2.17
2018-12-11T08:07:43.839Z,1.70
2018-12-11T08:11:46.929Z,2.47
2018-12-11T08:15:49.810Z,2.30
2018-12-11T08:19:52.753Z,1.80
2018-12-11T08:23:55.634Z,1.50
2018-12-11T08:27:58.879Z,2.13
2018-12-11T08:32:01.835Z,2.53
2018-12-11T08:36:04.707Z,1.80
2018-12-11T08:40:07.698Z,2.03
2018-12-11T08:44:10.585Z,2.57
2018-12-11T08:48:13.474Z,2.00
2018-12-11T08:52:16.626Z,2.57
2018-12-11T08:56:19.593Z,2.20
2018-12-11T09:00:22.541Z,2.10
2018-12-11T09:04:25.497Z,2.60
2018-12-11T09:08:28.744Z,2.20
2018-12-11T09:12:31.622Z,2.33
2018-12-11T09:16:34.486Z,2.13
2018-12-11T09:20:37.670Z,1.77
2018-12-11T09:24:40.784Z,1.77
2018-12-11T09:28:43.881Z,2.30
2018-12-11T09:32:46.762Z,1.87
2018-12-11T09:36:49.649Z,2.80
2018-12-11T09:40:52.809Z,4.30
2018-12-11T09:44:55.676Z,2.10
2018-12-11T09:48:58.545Z,1.80
2018-12-11T09:53:01.433Z,2.47
2018-12-11T09:57:04.356Z,2.60
2018-12-11T10:01:07.349Z,2.93
2018-12-11T10:05:10.229Z,2.93
2018-12-11T10:09:13.322Z,2.60
2018-12-11T10:13:16.407Z,2.53
2018-12-11T10:17:19.277Z,2.70
2018-12-11T10:21:22.217Z,3.33
2018-12-11T10:25:25.157Z,4.73
2018-12-11T10:29:28.025Z,2.63
2018-12-11T10:33:31.012Z,2.47
2018-12-11T10:37:33.949Z,2.77
2018-12-11T10:41:37.041Z,3.47
2018-12-11T10:45:40.005Z,2.47
2018-12-11T10:49:43.097Z,3.37
2018-12-11T10:53:46.061Z,2.90
2018-12-11T10:57:48.943Z,2.43
2018-12-11T11:01:53.221Z,4.07
2018-12-11T11:05:56.161Z,3.00
2018-12-11T11:09:59.209Z,2.20
2018-12-11T11:14:02.215Z,3.13
2018-12-11T11:18:05.167Z,2.77
2018-12-11T11:22:08.037Z,2.10
2018-12-11T11:26:10.965Z,2.70
2018-12-11T11:30:13.909Z,2.83
2018-12-11T11:34:16.977Z,3.00
2018-12-11T11:38:19.861Z,2.47
2018-12-11T11:42:22.909Z,3.10
2018-12-11T11:46:26.053Z,2.63
2018-12-11T11:50:29.220Z,2.30
2018-12-11T11:54:32.165Z,3.10
2018-12-11T11:58:35.238Z,2.20
2018-12-11T12:02:38.109Z,2.40
2018-12-11T12:06:41.166Z,2.43
2018-12-11T12:10:44.061Z,3.60
2018-12-11T12:14:49.176Z,2.20
2018-12-11T12:18:52.102Z,2.60
2018-12-11T12:22:54.965Z,3.63
2018-12-11T12:26:57.841Z,3.00
2018-12-11T12:31:01.684Z,2.67
2018-12-11T12:35:05.243Z,2.50
2018-12-11T12:39:08.350Z,3.40
2018-12-11T12:43:11.280Z,3.00
2018-12-11T12:47:14.421Z,3.30
2018-12-11T12:51:17.325Z,2.50
2018-12-11T12:55:20.197Z,2.50
2018-12-11T12:59:23.277Z,3.17
2018-12-11T13:03:26.446Z,2.30
2018-12-11T13:07:29.332Z,3.27
2018-12-11T13:11:33.489Z,2.57
2018-12-11T13:15:37.206Z,2.37
2018-12-11T13:19:40.085Z,2.83
2018-12-11T13:23:43.029Z,2.43
2018-12-11T13:27:46.101Z,2.27
2018-12-11T13:31:48.977Z,2.00
2018-12-11T13:35:51.921Z,3.00
2018-12-11T13:39:55.077Z,2.13
2018-12-11T13:43:58.029Z,2.80
2018-12-11T13:48:01.116Z,3.77
2018-12-11T13:52:04.337Z,2.77
2018-12-11T13:56:07.240Z,3.30
2018-12-11T14:00:11.418Z,1.83
2018-12-11T14:04:14.285Z,2.80
2018-12-11T14:08:17.161Z,2.90
2018-12-11T14:12:20.318Z,2.10
2018-12-11T14:16:23.177Z,2.50
2018-12-11T14:20:26.205Z,2.23
2018-12-11T14:24:30.626Z,1.50
2018-12-11T14:28:33.874Z,4.90
2018-12-11T14:32:36.819Z,2.20
2018-12-11T14:36:39.975Z,2.03
2018-12-11T14:40:42.849Z,2.13
2018-12-11T14:44:45.770Z,1.93
2018-12-11T14:48:48.978Z,2.90
2018-12-11T14:52:52.010Z,2.10
2018-12-11T14:56:54.939Z,2.53
2018-12-11T15:00:57.822Z,2.33
2018-12-11T15:05:00.860Z,2.53
2018-12-11T15:09:11.317Z,2.03
2018-12-11T15:13:14.213Z,2.37
2018-12-11T15:17:17.325Z,2.50
2018-12-11T15:21:20.233Z,2.63
2018-12-11T15:25:23.125Z,2.30
2018-12-11T15:29:26.310Z,2.20
2018-12-11T15:33:29.185Z,2.20
2018-12-11T15:37:38.651Z,3.00
2018-12-11T15:41:41.537Z,2.80
2018-12-11T15:45:44.632Z,6.50
2018-12-11T15:49:47.573Z,4.27
2018-12-11T15:53:50.505Z,2.23
2018-12-11T15:57:53.473Z,2.90
2018-12-11T16:01:56.473Z,3.10
2018-12-11T16:05:59.686Z,4.20
2018-12-11T16:10:02.609Z,3.43
2018-12-11T16:14:05.568Z,2.67
2018-12-11T16:18:08.713Z,2.40
2018-12-11T16:22:11.620Z,2.67
2018-12-11T16:26:14.493Z,2.90
2018-12-11T16:30:17.537Z,4.80
2018-12-11T16:34:20.618Z,3.23
2018-12-11T16:38:23.534Z,4.10
2018-12-11T16:42:26.420Z,3.30
2018-12-11T16:46:29.387Z,3.30
2018-12-11T16:50:32.255Z,3.07
2018-12-11T16:54:35.143Z,2.33
2018-12-11T16:58:38.293Z,1.87
2018-12-11T17:02:41.238Z,2.63
2018-12-11T17:06:44.321Z,2.73
2018-12-11T17:10:47.273Z,2.83
2018-12-11T17:14:50.343Z,3.90
2018-12-11T17:18:53.260Z,3.40
2018-12-11T17:22:56.173Z,3.80
2018-12-11T17:26:59.276Z,3.00
2018-12-11T17:31:02.325Z,2.73
2018-12-11T17:35:05.417Z,2.60
2018-12-11T17:39:08.281Z,2.80
2018-12-11T17:43:11.173Z,3.27
2018-12-11T17:47:14.089Z,3.13
2018-12-11T17:51:17.235Z,3.40
2018-12-11T17:55:20.430Z,3.17
2018-12-11T17:59:23.388Z,2.60
2018-12-11T18:03:26.264Z,4.30
2018-12-11T18:07:29.133Z,3.13
2018-12-11T18:11:32.001Z,4.70
2018-12-11T18:15:34.948Z,3.00
2018-12-11T18:19:38.022Z,4.00
2018-12-11T18:23:40.997Z,3.00
2018-12-11T18:27:43.861Z,4.43
2018-12-11T18:31:46.890Z,3.60
2018-12-11T18:35:49.962Z,5.37
2018-12-11T18:39:52.910Z,4.77
2018-12-11T18:43:55.786Z,7.57
2018-12-11T18:47:58.981Z,7.20
2018-12-11T18:52:01.909Z,7.10
2018-12-11T18:56:05.155Z,9.37
2018-12-11T19:00:08.826Z,7.87
2018-12-11T19:04:11.726Z,4.70
2018-12-11T19:08:14.723Z,5.07
2018-12-11T19:12:17.609Z,4.67
2018-12-11T19:16:20.481Z,4.03
2018-12-11T19:20:23.369Z,3.10
2018-12-11T19:24:29.930Z,3.13
2018-12-11T19:28:32.862Z,3.70
2018-12-11T19:32:35.814Z,3.97
2018-12-11T19:36:38.734Z,4.03
2018-12-11T19:40:43.998Z,3.70
2018-12-11T19:44:46.498Z,8.00
2018-12-11T19:48:49.393Z,9.47
2018-12-11T19:52:52.561Z,12.77
2018-12-11T19:56:55.514Z,5.97
2018-12-11T20:00:58.473Z,5.40
2018-12-11T20:05:01.433Z,5.03
2018-12-11T20:09:06.422Z,4.67
2018-12-11T20:13:09.322Z,6.37
2018-12-11T20:17:12.215Z,4.50
2018-12-11T20:21:15.312Z,4.40
2018-12-11T20:25:18.272Z,4.30
2018-12-11T20:29:21.165Z,4.97
2018-12-11T20:33:24.274Z,4.10
2018-12-11T20:37:27.366Z,4.93
2018-12-11T20:41:30.242Z,4.77
2018-12-11T20:45:33.119Z,5.90
2018-12-11T20:49:36.013Z,5.40
2018-12-11T20:53:38.905Z,7.80
2018-12-11T20:57:41.894Z,7.10
2018-12-11T21:01:45.860Z,6.13
2018-12-11T21:05:48.966Z,7.70
2018-12-11T21:09:52.106Z,6.50
2018-12-11T21:13:55.005Z,8.30
2018-12-11T21:17:58.169Z,6.23
2018-12-11T21:22:01.222Z,7.17
2018-12-11T21:26:04.089Z,6.20
2018-12-11T21:30:08.052Z,6.87
2018-12-11T21:34:10.966Z,6.63
2018-12-11T21:38:15.841Z,8.70
2018-12-11T21:42:18.934Z,11.50
2018-12-11T21:46:21.881Z,16.50
2018-12-11T21:50:25.023Z,12.43
2018-12-11T21:54:28.132Z,7.70
2018-12-11T21:58:31.401Z,7.97
2018-12-11T22:02:34.404Z,7.20
2018-12-11T22:06:37.256Z,5.30
2018-12-11T22:10:40.219Z,5.57
2018-12-11T22:14:43.176Z,5.77
2018-12-11T22:18:46.054Z,5.13
2018-12-11T22:22:48.941Z,5.10
2018-12-11T22:26:51.890Z,4.70
2018-12-11T22:30:54.754Z,5.07
2018-12-11T22:34:57.938Z,4.53
2018-12-11T22:39:00.819Z,2.80
2018-12-11T22:43:03.763Z,2.67
2018-12-11T22:47:06.629Z,3.47
2018-12-11T22:51:09.605Z,3.73
2018-12-11T22:55:12.553Z,3.80
2018-12-11T22:59:15.461Z,4.77
2018-12-11T23:03:18.335Z,4.47
2018-12-11T23:07:21.265Z,4.33
2018-12-11T23:11:24.142Z,4.97
2018-12-11T23:15:27.014Z,4.67
2018-12-11T23:19:29.888Z,4.37
2018-12-11T23:23:33.149Z,5.03
2018-12-11T23:27:36.082Z,4.30
2018-12-11T23:31:39.193Z,4.60
2018-12-11T23:35:42.157Z,3.90
2018-12-11T23:39:45.102Z,4.40
2018-12-11T23:43:48.195Z,4.20
2018-12-11T23:47:51.078Z,4.20
2018-12-11T23:51:54.249Z,3.40
2018-12-11T23:55:57.150Z,3.47
